Time;durP1;ratioP1;P1;durP2;ratioP2;P2;SDS_P1;SDS_P2;PMS_P1;PMS_P2;Temp;Humidity;BMP_temperature;BMP_pressure;BME280_temperature;BME280_humidity;BME280_pressure;Samples;Min_cycle;Max_cycle;Signal;HPM_P1;HPM_P2
2024/02/29 00:00:15;;;;;;;13.60;8.90;;;6.80;99.90;;;;;;5034155;28;20583;-68
2024/02/29 00:02:41;;;;;;;13.53;9.43;;;6.70;99.90;;;;;;5033658;28;20181;-68
2024/02/29 00:05:07;;;;;;;13.30;9.57;;;6.70;99.90;;;;;;5034710;28;20472;-66
2024/02/29 00:07:33;;;;;;;12.80;8.80;;;6.70;99.90;;;;;;5032051;28;20188;-67
2024/02/29 00:09:58;;;;;;;15.43;9.23;;;6.80;99.90;;;;;;5032458;28;20516;-68
2024/02/29 00:12:24;;;;;;;12.63;8.93;;;6.80;99.90;;;;;;5033422;28;20193;-67
2024/02/29 00:14:53;;;;;;;12.37;8.70;;;6.80;99.90;;;;;;5033628;28;20185;-68
2024/02/29 00:17:20;;;;;;;10.83;8.50;;;6.90;99.90;;;;;;5033451;28;20467;-66
2024/02/29 00:19:45;;;;;;;13.07;8.27;;;6.90;99.90;;;;;;5033834;28;20423;-68
2024/02/29 00:22:11;;;;;;;11.77;8.20;;;6.90;99.90;;;;;;5033214;28;20429;-68
2024/02/29 00:24:37;;;;;;;13.23;8.03;;;6.90;99.90;;;;;;5033509;28;20182;-67
2024/02/29 00:27:02;;;;;;;12.30;9.27;;;6.90;99.90;;;;;;5034072;28;20187;-67
2024/02/29 00:29:28;;;;;;;13.43;8.50;;;6.90;99.90;;;;;;5035058;28;20188;-66
2024/02/29 00:32:00;;;;;;;12.30;8.13;;;6.90;99.90;;;;;;5034201;28;20544;-67
2024/02/29 00:34:27;;;;;;;12.57;8.80;;;6.90;99.90;;;;;;5033651;28;20259;-67
2024/02/29 00:36:52;;;;;;;11.10;8.00;;;6.90;99.90;;;;;;5034245;28;20433;-65
2024/02/29 00:39:18;;;;;;;13.87;8.77;;;6.90;99.90;;;;;;5035103;28;20807;-67
2024/02/29 00:41:44;;;;;;;11.20;8.23;;;6.80;99.90;;;;;;5034638;28;20299;-66
2024/02/29 00:44:10;;;;;;;10.30;7.40;;;6.80;99.90;;;;;;5033849;28;20185;-66
2024/02/29 00:46:38;;;;;;;12.83;9.20;;;6.60;99.90;;;;;;5033662;28;20173;-67
2024/02/29 00:49:04;;;;;;;9.67;7.67;;;6.60;99.90;;;;;;5033036;28;20695;-68
2024/02/29 00:51:30;;;;;;;13.40;8.90;;;6.60;99.90;;;;;;5034024;28;20425;-67
2024/02/29 00:53:56;;;;;;;14.63;9.37;;;6.60;99.90;;;;;;5033893;28;20472;-65
2024/02/29 00:56:22;;;;;;;9.30;7.30;;;6.60;99.90;;;;;;5034835;28;20428;-66
2024/02/29 00:58:47;;;;;;;11.10;7.93;;;6.60;99.90;;;;;;5034798;28;20185;-67
2024/02/29 01:01:13;;;;;;;10.73;7.80;;;6.60;99.90;;;;;;5033253;28;20206;-68
2024/02/29 01:03:39;;;;;;;9.67;7.40;;;6.60;99.90;;;;;;5034947;28;20173;-65
2024/02/29 01:06:05;;;;;;;12.10;6.93;;;6.60;99.90;;;;;;5038064;28;20272;-65
2024/02/29 01:08:31;;;;;;;10.50;7.73;;;6.60;99.90;;;;;;5038085;28;20297;-66
2024/02/29 01:10:56;;;;;;;10.17;7.33;;;6.70;99.90;;;;;;5037593;28;21064;-66
2024/02/29 01:13:22;;;;;;;11.00;7.70;;;6.70;99.90;;;;;;5039087;28;20550;-67
2024/02/29 01:15:49;;;;;;;11.90;8.20;;;6.70;99.90;;;;;;5036982;28;20188;-68
2024/02/29 01:18:15;;;;;;;10.57;7.23;;;6.60;99.90;;;;;;5038000;28;20205;-67
2024/02/29 01:20:41;;;;;;;10.20;7.40;;;6.60;99.90;;;;;;5037387;28;20440;-67
2024/02/29 01:23:06;;;;;;;9.53;7.27;;;6.50;99.90;;;;;;5038107;28;20955;-66
2024/02/29 01:25:32;;;;;;;10.70;7.70;;;6.50;99.90;;;;;;5038137;28;20205;-68
2024/02/29 01:27:58;;;;;;;10.53;7.80;;;6.40;99.90;;;;;;5037592;28;20552;-65
2024/02/29 01:30:24;;;;;;;11.00;8.20;;;6.50;99.90;;;;;;5038310;28;20439;-68
2024/02/29 01:32:49;;;;;;;12.90;7.13;;;6.50;99.90;;;;;;5038026;28;20217;-67
2024/02/29 01:35:15;;;;;;;10.43;6.93;;;6.50;99.90;;;;;;5036659;28;20189;-67
2024/02/29 01:37:41;;;;;;;8.93;6.83;;;6.50;99.90;;;;;;5036631;28;20240;-68
2024/02/29 01:40:07;;;;;;;10.00;6.30;;;6.40;99.90;;;;;;5037803;28;20221;-68
2024/02/29 01:42:33;;;;;;;9.83;7.67;;;6.30;99.90;;;;;;5037735;28;20417;-65
2024/02/29 01:44:59;;;;;;;8.70;6.77;;;6.30;99.90;;;;;;5037504;28;20435;-66
2024/02/29 01:47:26;;;;;;;9.97;7.30;;;6.40;99.90;;;;;;5037857;28;21048;-67
2024/02/29 01:49:56;;;;;;;9.47;7.23;;;6.40;99.90;;;;;;5036785;28;20175;-67
2024/02/29 01:52:25;;;;;;;10.80;7.50;;;6.40;99.90;;;;;;5037533;28;20436;-66
2024/02/29 01:54:50;;;;;;;10.40;6.93;;;6.40;99.90;;;;;;5035954;28;20425;-66
2024/02/29 01:57:17;;;;;;;11.80;7.37;;;6.30;99.90;;;;;;5037406;28;20424;-67
2024/02/29 01:59:44;;;;;;;12.60;8.23;;;6.40;99.90;;;;;;5037223;28;20215;-67
2024/02/29 02:02:10;;;;;;;10.73;7.63;;;6.30;99.90;;;;;;5036878;28;20433;-68
2024/02/29 02:04:35;;;;;;;11.53;7.13;;;6.30;99.90;;;;;;5036408;28;20856;-68
2024/02/29 02:07:04;;;;;;;12.77;8.67;;;6.30;99.90;;;;;;5036229;28;20182;-67
2024/02/29 02:09:30;;;;;;;12.67;7.70;;;6.30;99.90;;;;;;5037294;28;20186;-67
2024/02/29 02:11:56;;;;;;;10.87;7.00;;;6.20;99.90;;;;;;5035703;28;20432;-67
2024/02/29 02:14:22;;;;;;;11.10;7.60;;;6.20;99.90;;;;;;5036793;28;20225;-67
2024/02/29 02:16:48;;;;;;;13.77;8.67;;;6.20;99.90;;;;;;5035868;28;20182;-68
2024/02/29 02:19:16;;;;;;;11.37;7.80;;;6.20;99.90;;;;;;5035949;28;20961;-67
2024/02/29 02:21:45;;;;;;;11.40;8.07;;;6.20;99.90;;;;;;5035978;28;20428;-67
2024/02/29 02:24:11;;;;;;;10.60;7.77;;;6.20;99.90;;;;;;5034865;28;20451;-67
2024/02/29 02:26:36;;;;;;;9.20;7.03;;;6.20;99.90;;;;;;5036643;28;20799;-68
2024/02/29 02:29:04;;;;;;;11.57;7.83;;;6.20;99.90;;;;;;5036100;28;20187;-69
2024/02/29 02:31:30;;;;;;;9.63;6.90;;;6.20;99.90;;;;;;5036839;28;20187;-68
2024/02/29 02:33:56;;;;;;;10.50;7.60;;;6.20;99.90;;;;;;5034296;28;20530;-68
2024/02/29 02:36:22;;;;;;;10.23;7.50;;;6.20;99.90;;;;;;5036068;28;20193;-68
2024/02/29 02:38:48;;;;;;;12.00;7.87;;;6.20;99.90;;;;;;5035699;28;20474;-69
2024/02/29 02:41:14;;;;;;;12.47;8.50;;;6.20;99.90;;;;;;5035196;28;20511;-69
2024/02/29 02:43:39;;;;;;;10.43;7.03;;;6.10;99.90;;;;;;5035943;28;20458;-69
2024/02/29 02:46:05;;;;;;;11.03;7.03;;;6.00;99.90;;;;;;5035726;28;20637;-69
2024/02/29 02:48:31;;;;;;;10.37;6.80;;;6.00;99.90;;;;;;5035183;28;20194;-67
2024/02/29 02:50:56;;;;;;;10.87;7.03;;;6.00;99.90;;;;;;5035201;28;20190;-67
2024/02/29 02:53:22;;;;;;;12.10;7.90;;;6.00;99.90;;;;;;5036819;28;20248;-68
2024/02/29 02:55:48;;;;;;;10.80;7.37;;;6.00;99.90;;;;;;5034998;28;20676;-67
2024/02/29 02:58:14;;;;;;;10.50;6.87;;;6.00;99.90;;;;;;5036028;28;20217;-70
2024/02/29 03:00:39;;;;;;;13.27;7.60;;;6.00;99.90;;;;;;5035667;28;20197;-69
2024/02/29 03:03:05;;;;;;;13.33;8.20;;;6.10;99.90;;;;;;5035550;28;20753;-69
2024/02/29 03:05:31;;;;;;;10.60;7.13;;;6.10;99.90;;;;;;5035481;28;20177;-68
2024/02/29 03:07:57;;;;;;;11.03;7.93;;;6.10;99.90;;;;;;5034217;28;20216;-66
2024/02/29 03:10:23;;;;;;;10.77;7.50;;;6.10;99.90;;;;;;5035871;28;20954;-68
2024/02/29 03:12:49;;;;;;;11.27;6.53;;;6.10;99.90;;;;;;5035367;28;20464;-67
2024/02/29 03:15:15;;;;;;;10.67;6.80;;;6.20;99.90;;;;;;5035509;28;20214;-69
2024/02/29 03:17:41;;;;;;;9.73;7.03;;;6.20;99.90;;;;;;5035386;28;20517;-69
2024/02/29 03:20:16;;;;;;;13.10;8.17;;;6.20;99.90;;;;;;5034658;28;20424;-68
2024/02/29 03:22:42;;;;;;;12.10;7.00;;;6.30;99.90;;;;;;5034796;28;20421;-67
2024/02/29 03:25:09;;;;;;;10.33;7.40;;;6.20;99.90;;;;;;5035193;28;20435;-66
2024/02/29 03:27:35;;;;;;;10.43;7.60;;;6.30;99.90;;;;;;5034272;28;20437;-67
2024/02/29 03:30:02;;;;;;;11.70;7.97;;;6.20;99.90;;;;;;5035038;28;20428;-69
2024/02/29 03:32:28;;;;;;;9.70;7.13;;;6.20;99.90;;;;;;5034221;28;20190;-66
2024/02/29 03:34:53;;;;;;;10.93;7.87;;;6.10;99.90;;;;;;5034537;28;20437;-67
2024/02/29 03:37:19;;;;;;;11.50;7.57;;;6.10;99.90;;;;;;5035460;28;20186;-67
2024/02/29 03:39:45;;;;;;;11.30;7.63;;;6.00;99.90;;;;;;5034755;28;20191;-68
2024/02/29 03:42:11;;;;;;;11.27;7.60;;;6.00;99.90;;;;;;5035159;28;20545;-67
2024/02/29 03:44:41;;;;;;;10.37;6.67;;;6.10;99.90;;;;;;5034160;28;20276;-68
2024/02/29 03:47:07;;;;;;;10.40;7.80;;;6.10;99.90;;;;;;5032642;28;20425;-66
2024/02/29 03:49:33;;;;;;;11.07;7.70;;;6.10;99.90;;;;;;5035108;28;20442;-68
2024/02/29 03:51:59;;;;;;;10.40;6.60;;;6.10;99.90;;;;;;5033925;28;20436;-67
2024/02/29 03:54:25;;;;;;;9.37;6.50;;;6.20;99.90;;;;;;5034871;28;20228;-68
2024/02/29 03:56:51;;;;;;;12.00;8.10;;;6.10;99.90;;;;;;5034390;28;20265;-68
2024/02/29 03:59:17;;;;;;;8.40;6.27;;;6.10;99.90;;;;;;5034632;28;20303;-69
2024/02/29 04:01:49;;;;;;;10.30;6.80;;;6.10;99.90;;;;;;5033285;28;20448;-69
2024/02/29 04:04:19;;;;;;;10.50;7.00;;;6.20;99.90;;;;;;5034130;28;20182;-68
2024/02/29 04:06:45;;;;;;;11.10;7.40;;;6.20;99.90;;;;;;5033302;28;20479;-68
2024/02/29 04:09:11;;;;;;;10.27;6.90;;;6.20;99.90;;;;;;5034766;28;20424;-68
2024/02/29 04:11:38;;;;;;;11.93;8.00;;;6.20;99.90;;;;;;5033218;28;20759;-69
2024/02/29 04:14:04;;;;;;;12.07;7.17;;;6.10;99.90;;;;;;5034393;28;20469;-68
2024/02/29 04:16:38;;;;;;;12.50;7.33;;;6.00;99.90;;;;;;5034223;28;20460;-68
2024/02/29 04:19:04;;;;;;;11.97;6.90;;;6.10;99.90;;;;;;5033601;28;20428;-69
2024/02/29 04:21:33;;;;;;;10.23;7.40;;;6.10;99.90;;;;;;5033759;28;20426;-67
2024/02/29 04:24:00;;;;;;;11.83;7.30;;;6.10;99.90;;;;;;5033575;28;20425;-67
2024/02/29 04:26:26;;;;;;;12.07;7.10;;;6.00;99.90;;;;;;5033946;28;20429;-69
2024/02/29 04:28:53;;;;;;;13.73;8.37;;;6.00;99.90;;;;;;5032597;28;20946;-69
2024/02/29 04:31:18;;;;;;;10.97;6.90;;;5.90;99.90;;;;;;5033861;28;20432;-69
2024/02/29 04:33:44;;;;;;;10.10;7.40;;;5.90;99.90;;;;;;5031617;28;20546;-69
2024/02/29 04:36:10;;;;;;;11.20;7.77;;;5.90;99.90;;;;;;5033888;28;20264;-66
2024/02/29 04:38:36;;;;;;;10.87;7.00;;;5.80;99.90;;;;;;5033635;28;20521;-67
2024/02/29 04:41:02;;;;;;;13.17;7.77;;;5.80;99.90;;;;;;5033682;28;20550;-69
2024/02/29 04:43:28;;;;;;;10.10;6.53;;;5.80;99.90;;;;;;5032834;28;20193;-67
2024/02/29 04:45:54;;;;;;;10.80;7.60;;;5.80;99.90;;;;;;5033165;28;20178;-67
2024/02/29 04:48:21;;;;;;;11.53;6.97;;;5.80;99.90;;;;;;5033677;28;20505;-67
2024/02/29 04:50:46;;;;;;;11.40;6.80;;;5.70;99.90;;;;;;5032774;28;20507;-69
2024/02/29 04:53:13;;;;;;;11.60;6.80;;;5.70;99.90;;;;;;5034262;28;20476;-69
2024/02/29 04:55:39;;;;;;;11.13;7.50;;;5.70;99.90;;;;;;5032820;28;20704;-69
2024/02/29 04:58:05;;;;;;;13.50;7.60;;;5.60;99.90;;;;;;5034570;28;20436;-66
2024/02/29 05:00:31;;;;;;;11.10;7.47;;;5.70;99.90;;;;;;5033904;28;20413;-67
2024/02/29 05:02:56;;;;;;;13.00;7.43;;;5.70;99.90;;;;;;5033505;28;20309;-68
2024/02/29 05:05:22;;;;;;;11.53;6.47;;;5.60;99.90;;;;;;5032791;28;20193;-66
2024/02/29 05:07:48;;;;;;;8.87;6.07;;;5.70;99.90;;;;;;5031890;28;20178;-67
2024/02/29 05:10:13;;;;;;;7.53;6.20;;;5.60;99.90;;;;;;5032416;28;20607;-66
2024/02/29 05:12:39;;;;;;;11.77;7.63;;;5.60;99.90;;;;;;5030310;28;20182;-68
2024/02/29 05:15:06;;;;;;;10.37;5.93;;;5.60;99.90;;;;;;5034028;28;20637;-67
2024/02/29 05:17:32;;;;;;;17.30;7.27;;;5.60;99.90;;;;;;5032847;28;20232;-67
2024/02/29 05:19:58;;;;;;;12.07;7.43;;;5.60;99.90;;;;;;5032053;28;20850;-68
2024/02/29 05:22:24;;;;;;;10.77;6.70;;;5.60;99.90;;;;;;5033503;28;21292;-68
2024/02/29 05:24:50;;;;;;;12.00;7.47;;;5.50;99.90;;;;;;5032785;28;20424;-68
2024/02/29 05:27:15;;;;;;;9.60;7.10;;;5.50;99.90;;;;;;5033085;28;21181;-67
2024/02/29 05:29:41;;;;;;;11.70;7.47;;;5.50;99.90;;;;;;5032815;28;20196;-68
2024/02/29 05:32:07;;;;;;;11.10;6.70;;;5.50;99.90;;;;;;5033479;28;20186;-69
2024/02/29 05:34:33;;;;;;;10.00;6.70;;;5.50;99.90;;;;;;5031875;28;20264;-67
2024/02/29 05:36:59;;;;;;;10.80;7.30;;;5.60;99.90;;;;;;5032557;28;20455;-67
2024/02/29 05:39:24;;;;;;;11.50;7.13;;;5.60;99.90;;;;;;5033565;28;20177;-67
2024/02/29 05:41:50;;;;;;;9.23;6.97;;;5.60;99.90;;;;;;5025006;28;20217;-69
2024/02/29 05:44:16;;;;;;;13.43;7.77;;;5.60;99.90;;;;;;5032770;28;20197;-67
2024/02/29 05:46:43;;;;;;;10.23;7.07;;;5.60;99.90;;;;;;5030781;28;20181;-68
2024/02/29 05:49:08;;;;;;;11.90;7.20;;;5.60;99.90;;;;;;5032648;28;20455;-69
2024/02/29 05:51:34;;;;;;;10.53;6.90;;;5.60;99.90;;;;;;5034905;28;20437;-68
2024/02/29 05:54:00;;;;;;;10.83;6.90;;;5.60;99.90;;;;;;5036372;28;20210;-69
2024/02/29 05:56:26;;;;;;;15.87;6.90;;;5.60;99.90;;;;;;5036215;28;20190;-69
2024/02/29 05:58:52;;;;;;;13.27;7.17;;;5.70;99.90;;;;;;5036151;28;20185;-69
2024/02/29 06:01:18;;;;;;;9.03;6.90;;;5.70;99.90;;;;;;5035813;28;20630;-69
2024/02/29 06:03:44;;;;;;;11.50;6.90;;;5.70;99.90;;;;;;5035104;28;20600;-69
2024/02/29 06:06:10;;;;;;;12.00;6.90;;;5.70;99.90;;;;;;5036498;28;20452;-68
2024/02/29 06:08:36;;;;;;;11.93;7.70;;;5.80;99.90;;;;;;5035108;28;20175;-69
2024/02/29 06:11:02;;;;;;;10.93;7.17;;;5.80;99.90;;;;;;5036231;28;20784;-68
2024/02/29 06:13:28;;;;;;;10.13;6.10;;;5.80;99.90;;;;;;5035709;28;20475;-67
2024/02/29 06:15:54;;;;;;;10.10;5.90;;;5.70;99.90;;;;;;5033791;28;20195;-68
2024/02/29 06:18:20;;;;;;;10.90;6.50;;;5.80;99.90;;;;;;5036021;28;20432;-66
2024/02/29 06:20:46;;;;;;;9.10;6.13;;;5.90;99.90;;;;;;5035589;28;20516;-67
2024/02/29 06:23:11;;;;;;;10.17;6.73;;;5.90;99.90;;;;;;5036550;28;20181;-70
2024/02/29 06:25:37;;;;;;;10.03;6.27;;;5.90;99.90;;;;;;5034805;28;20186;-69
2024/02/29 06:28:03;;;;;;;8.47;6.37;;;5.90;99.90;;;;;;5036426;28;21400;-67
2024/02/29 06:30:32;;;;;;;9.57;6.07;;;6.00;99.90;;;;;;5033607;28;20186;-67
2024/02/29 06:32:58;;;;;;;9.63;6.20;;;6.00;99.90;;;;;;5034743;28;20477;-68
2024/02/29 06:35:24;;;;;;;8.37;5.90;;;5.90;99.90;;;;;;5034603;28;20527;-68
2024/02/29 06:37:50;;;;;;;10.23;5.80;;;5.90;99.90;;;;;;5034738;28;20451;-70
2024/02/29 06:40:16;;;;;;;9.80;6.10;;;5.90;99.90;;;;;;5030714;28;20444;-68
2024/02/29 06:42:41;;;;;;;9.50;6.50;;;5.90;99.90;;;;;;5031830;28;20716;-69
2024/02/29 06:45:08;;;;;;;9.87;6.23;;;5.90;99.90;;;;;;5035493;28;20179;-69
2024/02/29 06:47:34;;;;;;;9.97;5.80;;;6.00;99.90;;;;;;5033521;28;20213;-67
2024/02/29 06:50:00;;;;;;;8.10;5.97;;;6.00;99.90;;;;;;5035335;28;20424;-69
2024/02/29 06:52:26;;;;;;;9.80;6.27;;;6.00;99.90;;;;;;5034678;28;20189;-69
2024/02/29 06:54:52;;;;;;;9.07;5.60;;;6.00;99.90;;;;;;5067211;28;20498;-67
2024/02/29 06:57:18;;;;;;;10.83;6.80;;;6.00;99.90;;;;;;5033324;28;20440;-67
2024/02/29 06:59:44;;;;;;;9.83;6.40;;;6.00;99.90;;;;;;5031959;28;20464;-68
2024/02/29 07:02:09;;;;;;;9.90;6.07;;;6.10;99.90;;;;;;5034325;28;20182;-69
2024/02/29 07:04:35;;;;;;;9.77;5.97;;;6.10;99.90;;;;;;5034007;28;20273;-67
2024/02/29 07:07:03;;;;;;;7.63;5.53;;;6.10;99.90;;;;;;5034932;28;20181;-67
2024/02/29 07:09:28;;;;;;;7.30;5.47;;;6.10;99.90;;;;;;5034444;28;20203;-68
2024/02/29 07:11:54;;;;;;;9.80;5.77;;;6.10;99.90;;;;;;5034187;28;21013;-69
2024/02/29 07:14:20;;;;;;;8.73;7.00;;;6.10;99.90;;;;;;5034353;28;20316;-67
2024/02/29 07:16:46;;;;;;;11.23;6.40;;;6.10;99.90;;;;;;5032791;28;20279;-69
2024/02/29 07:19:12;;;;;;;7.93;5.80;;;6.20;99.90;;;;;;5033148;28;20599;-67
2024/02/29 07:21:38;;;;;;;9.00;5.97;;;6.20;99.90;;;;;;5030524;28;20429;-69
2024/02/29 07:24:04;;;;;;;8.63;5.67;;;6.20;99.90;;;;;;5030290;28;20436;-69
2024/02/29 07:26:30;;;;;;;9.90;6.30;;;6.30;99.90;;;;;;5031229;28;20178;-70
2024/02/29 07:28:57;;;;;;;13.40;6.50;;;6.30;99.90;;;;;;5034192;28;20409;-72
2024/02/29 07:31:23;;;;;;;13.53;6.37;;;6.30;99.90;;;;;;5034344;28;20510;-66
2024/02/29 07:33:49;;;;;;;11.33;5.93;;;6.20;99.90;;;;;;5033731;28;20476;-68
2024/02/29 07:36:14;;;;;;;11.10;6.10;;;6.30;99.90;;;;;;5032091;28;20435;-69
2024/02/29 07:38:40;;;;;;;8.70;5.90;;;6.30;99.90;;;;;;5033298;28;20186;-68
2024/02/29 07:41:06;;;;;;;9.50;6.33;;;6.40;99.90;;;;;;5034177;28;20182;-70
2024/02/29 07:43:32;;;;;;;8.20;5.40;;;6.40;99.90;;;;;;5032036;28;20186;-72
2024/02/29 07:45:57;;;;;;;11.70;6.50;;;6.50;99.90;;;;;;5034422;28;20491;-67
2024/02/29 07:48:24;;;;;;;8.17;5.83;;;6.60;99.90;;;;;;5034296;28;20248;-71
2024/02/29 07:50:50;;;;;;;8.57;6.33;;;6.70;99.90;;;;;;5033715;28;20216;-69
2024/02/29 07:53:16;;;;;;;9.40;6.83;;;6.70;99.90;;;;;;5034716;28;20459;-66
2024/02/29 07:55:41;;;;;;;8.00;5.40;;;6.90;99.90;;;;;;5034510;28;20286;-72
2024/02/29 07:58:07;;;;;;;7.97;6.10;;;7.00;99.90;;;;;;5034668;28;20703;-69
2024/02/29 08:00:34;;;;;;;10.13;5.90;;;7.00;99.90;;;;;;5033598;28;20179;-72
2024/02/29 08:02:59;;;;;;;11.40;5.70;;;7.10;99.90;;;;;;5033485;28;21524;-72
2024/02/29 08:05:25;;;;;;;7.80;6.03;;;7.20;99.90;;;;;;5033145;28;20420;-70
2024/02/29 08:07:51;;;;;;;9.30;5.60;;;7.30;99.90;;;;;;5033116;28;20843;-71
2024/02/29 08:10:16;;;;;;;8.50;5.80;;;7.40;99.90;;;;;;5032956;28;20710;-67
2024/02/29 08:12:45;;;;;;;9.30;5.70;;;7.40;99.90;;;;;;5033560;28;21018;-66
2024/02/29 08:15:11;;;;;;;8.33;5.60;;;7.50;99.90;;;;;;5032975;28;20186;-69
2024/02/29 08:17:37;;;;;;;7.77;5.33;;;7.60;99.90;;;;;;5032860;28;20468;-71
2024/02/29 08:20:03;;;;;;;8.03;5.97;;;7.80;99.90;;;;;;5033890;28;20460;-65
2024/02/29 08:22:29;;;;;;;7.40;5.57;;;7.90;99.90;;;;;;5016446;28;20182;-70
2024/02/29 08:24:55;;;;;;;7.43;5.67;;;8.10;99.90;;;;;;5033051;28;20443;-67
2024/02/29 08:27:20;;;;;;;7.77;5.40;;;8.30;99.90;;;;;;5033581;28;20194;-73
2024/02/29 08:29:46;;;;;;;6.50;4.57;;;8.40;99.90;;;;;;5033223;28;20174;-69
2024/02/29 08:32:13;;;;;;;9.20;5.60;;;8.50;99.90;;;;;;5033965;28;20593;-71
2024/02/29 08:34:39;;;;;;;8.83;4.80;;;8.60;99.90;;;;;;5033163;28;20271;-68
2024/02/29 08:37:05;;;;;;;5.20;4.53;;;8.70;99.90;;;;;;5033608;28;20836;-70
2024/02/29 08:39:33;;;;;;;5.83;4.47;;;8.90;99.90;;;;;;5032785;28;20186;-66
2024/02/29 08:41:59;;;;;;;5.30;4.30;;;9.00;99.90;;;;;;5032956;28;21039;-68
2024/02/29 08:44:25;;;;;;;6.07;5.00;;;9.10;99.90;;;;;;5032994;28;20486;-69
2024/02/29 08:46:50;;;;;;;4.90;3.93;;;9.20;99.90;;;;;;5047616;28;20185;-71
2024/02/29 08:49:16;;;;;;;6.40;4.47;;;9.40;99.90;;;;;;5032316;28;20638;-72
2024/02/29 08:51:42;;;;;;;7.37;4.63;;;9.50;99.90;;;;;;5032027;28;20194;-69
2024/02/29 08:54:07;;;;;;;5.17;3.90;;;9.40;99.70;;;;;;5032963;28;20235;-66
2024/02/29 08:56:33;;;;;;;6.70;4.03;;;9.30;99.80;;;;;;5030392;28;20870;-74
2024/02/29 08:58:59;;;;;;;6.30;4.27;;;9.30;99.70;;;;;;5033120;28;20192;-66
2024/02/29 09:01:24;;;;;;;4.70;3.57;;;9.20;99.90;;;;;;5032298;28;20181;-66
2024/02/29 09:03:50;;;;;;;6.13;4.40;;;9.20;99.90;;;;;;5033675;28;20701;-67
2024/02/29 09:06:16;;;;;;;6.47;4.00;;;9.20;99.90;;;;;;5033749;28;20265;-67
2024/02/29 09:08:42;;;;;;;5.47;3.63;;;9.30;99.90;;;;;;5033415;28;20200;-69
2024/02/29 09:11:08;;;;;;;6.83;5.07;;;9.40;99.70;;;;;;5034078;28;20438;-73
2024/02/29 09:13:33;;;;;;;4.63;3.40;;;9.40;99.10;;;;;;5032562;28;20964;-67
2024/02/29 09:15:59;;;;;;;5.37;3.87;;;9.50;99.20;;;;;;5034299;28;20989;-73
2024/02/29 09:18:25;;;;;;;7.03;4.20;;;9.70;98.90;;;;;;5032988;28;20177;-72
2024/02/29 09:20:51;;;;;;;4.90;3.73;;;9.70;98.90;;;;;;5048672;28;20198;-71
2024/02/29 09:23:17;;;;;;;4.57;3.83;;;9.90;98.70;;;;;;5033339;28;20428;-73
2024/02/29 09:25:43;;;;;;;5.60;4.50;;;10.00;97.80;;;;;;5033822;28;20187;-71
2024/02/29 09:28:09;;;;;;;6.50;4.00;;;10.20;97.70;;;;;;5038052;28;20648;-72
2024/02/29 09:30:34;;;;;;;5.43;3.50;;;10.30;97.00;;;;;;5036544;28;20432;-69
2024/02/29 09:33:00;;;;;;;7.83;4.23;;;10.40;97.30;;;;;;5038145;28;20775;-71
2024/02/29 09:35:26;;;;;;;5.50;3.77;;;10.50;97.40;;;;;;5036051;28;20178;-71
2024/02/29 09:37:51;;;;;;;7.97;4.63;;;10.50;97.20;;;;;;5037732;28;20182;-71
2024/02/29 09:40:20;;;;;;;5.80;4.37;;;10.50;96.80;;;;;;5036736;28;20551;-69
2024/02/29 09:42:46;;;;;;;6.70;3.43;;;10.50;97.00;;;;;;5036012;28;20174;-67
2024/02/29 09:45:14;;;;;;;5.80;3.87;;;10.60;96.80;;;;;;5037244;28;20507;-68
2024/02/29 09:47:43;;;;;;;8.33;4.30;;;10.40;97.00;;;;;;5036602;28;20436;-73
2024/02/29 09:50:09;;;;;;;4.60;3.60;;;10.50;97.40;;;;;;5020056;28;20437;-72
2024/02/29 09:52:37;;;;;;;5.27;3.63;;;10.40;97.50;;;;;;5035694;28;20430;-71
2024/02/29 09:55:04;;;;;;;4.47;3.50;;;10.40;98.00;;;;;;5036334;28;20974;-67
2024/02/29 09:57:36;;;;;;;5.17;3.60;;;10.50;97.60;;;;;;5036272;28;20889;-73
2024/02/29 10:00:03;;;;;;;4.50;3.37;;;10.50;98.40;;;;;;5036829;28;20457;-70
2024/02/29 10:02:29;;;;;;;4.67;3.63;;;10.50;97.80;;;;;;5035924;28;20433;-70
2024/02/29 10:04:55;;;;;;;4.40;3.67;;;10.60;98.30;;;;;;5036778;28;20445;-66
2024/02/29 10:07:20;;;;;;;7.33;4.10;;;10.70;98.00;;;;;;5036311;28;20429;-67
2024/02/29 10:09:46;;;;;;;6.40;4.17;;;10.80;97.80;;;;;;5035980;28;20219;-70
2024/02/29 10:12:18;;;;;;;4.27;3.30;;;10.90;97.80;;;;;;5037067;28;20808;-72
2024/02/29 10:14:45;;;;;;;5.57;3.83;;;11.00;98.30;;;;;;5035058;28;20700;-75
2024/02/29 10:17:11;;;;;;;6.27;3.90;;;11.00;98.20;;;;;;5035886;28;20418;-69
2024/02/29 10:19:38;;;;;;;5.60;3.70;;;10.90;97.40;;;;;;5035827;28;20417;-69
2024/02/29 10:22:04;;;;;;;6.40;4.07;;;10.90;97.80;;;;;;5036569;28;21158;-71
2024/02/29 10:24:30;;;;;;;5.00;3.20;;;10.90;97.70;;;;;;5036182;28;20424;-69
2024/02/29 10:27:02;;;;;;;7.30;3.97;;;10.80;97.80;;;;;;5035906;28;20429;-69
2024/02/29 10:29:31;;;;;;;5.83;4.10;;;10.70;97.40;;;;;;5035731;28;20424;-72
2024/02/29 10:31:58;;;;;;;4.20;3.70;;;10.80;97.60;;;;;;5035690;28;20424;-68
2024/02/29 10:34:24;;;;;;;5.50;3.63;;;10.80;98.00;;;;;;5035183;28;20482;-73
2024/02/29 10:36:50;;;;;;;5.40;3.97;;;10.90;98.00;;;;;;5034918;28;20424;-71
2024/02/29 10:39:16;;;;;;;4.50;3.80;;;10.90;98.20;;;;;;5035624;28;20874;-70
2024/02/29 10:41:49;;;;;;;5.40;3.67;;;10.90;97.50;;;;;;5035402;28;20480;-69
2024/02/29 10:44:18;;;;;;;5.20;4.30;;;10.80;97.40;;;;;;5035721;28;20194;-71
2024/02/29 10:46:53;;;;;;;5.17;3.90;;;10.70;97.90;;;;;;5035605;28;20426;-76
2024/02/29 10:49:18;;;;;;;5.77;3.77;;;10.70;98.20;;;;;;5017900;28;20459;-65
2024/02/29 10:51:55;;;;;;;5.57;3.83;;;10.60;98.10;;;;;;5036378;28;21142;-69
2024/02/29 10:54:30;;;;;;;5.13;4.00;;;10.60;98.50;;;;;;5035637;28;20221;-70
2024/02/29 10:56:56;;;;;;;7.00;4.10;;;10.60;98.50;;;;;;5036073;28;20504;-71
2024/02/29 10:59:23;;;;;;;6.03;3.60;;;10.60;98.90;;;;;;5035240;28;20464;-71
2024/02/29 11:01:49;;;;;;;6.13;4.33;;;10.80;99.50;;;;;;5035766;28;20417;-70
2024/02/29 11:04:15;;;;;;;5.30;3.87;;;10.80;98.70;;;;;;5034949;28;20524;-71
2024/02/29 11:06:45;;;;;;;5.70;4.13;;;10.80;98.70;;;;;;5035968;28;20239;-71
2024/02/29 11:09:14;;;;;;;5.97;4.10;;;10.80;98.30;;;;;;5035860;28;20957;-71
2024/02/29 11:11:41;;;;;;;6.77;4.53;;;10.80;98.30;;;;;;5035428;28;20424;-70
2024/02/29 11:14:09;;;;;;;7.33;3.90;;;10.80;98.00;;;;;;5034572;28;20481;-72
2024/02/29 11:16:55;;;;;;;5.33;3.60;;;10.80;98.60;;;;;;5035027;28;20476;-73
2024/02/29 11:19:21;;;;;;;8.87;4.50;;;10.70;98.60;;;;;;5035112;28;20424;-67
2024/02/29 11:21:46;;;;;;;5.63;3.50;;;10.70;98.80;;;;;;5035391;28;20427;-69
2024/02/29 11:24:18;;;;;;;4.80;3.90;;;10.60;98.40;;;;;;5034577;28;20279;-67
2024/02/29 11:26:44;;;;;;;6.77;3.80;;;10.70;98.80;;;;;;5035488;28;20197;-71
2024/02/29 11:29:20;;;;;;;6.13;4.40;;;10.60;98.90;;;;;;5035606;28;20420;-68
2024/02/29 11:31:50;;;;;;;6.60;4.00;;;10.60;99.20;;;;;;5035901;28;20276;-68
2024/02/29 11:34:17;;;;;;;5.00;4.00;;;10.60;99.20;;;;;;5034601;28;20470;-72
2024/02/29 11:36:45;;;;;;;4.33;3.90;;;10.60;99.30;;;;;;5018659;28;20428;-74
2024/02/29 11:39:11;;;;;;;4.87;3.93;;;10.60;99.50;;;;;;5035485;28;20436;-72
2024/02/29 11:41:37;;;;;;;6.37;4.00;;;10.60;99.50;;;;;;5034569;28;20429;-71
2024/02/29 11:44:03;;;;;;;5.00;3.97;;;10.70;99.60;;;;;;5035403;28;20979;-71
2024/02/29 11:46:29;;;;;;;5.30;2.90;;;10.70;99.60;;;;;;5034294;28;20420;-68
2024/02/29 11:48:55;;;;;;;4.33;3.50;;;10.60;99.70;;;;;;5034990;28;20444;-69
2024/02/29 11:51:21;;;;;;;4.40;3.53;;;10.60;99.40;;;;;;5034712;28;20522;-64
2024/02/29 11:53:48;;;;;;;6.53;3.50;;;10.60;99.70;;;;;;5035278;28;20205;-68
2024/02/29 11:56:14;;;;;;;6.30;4.03;;;10.70;99.90;;;;;;5034815;28;20832;-68
2024/02/29 11:58:40;;;;;;;5.27;3.63;;;10.70;99.90;;;;;;5035333;28;20428;-64
2024/02/29 12:01:06;;;;;;;4.23;3.40;;;10.60;99.80;;;;;;5034444;28;20823;-72
2024/02/29 12:03:32;;;;;;;4.57;3.87;;;10.60;99.90;;;;;;5018551;28;20426;-71
2024/02/29 12:05:58;;;;;;;6.40;4.33;;;10.70;99.90;;;;;;5033886;28;20429;-69
2024/02/29 12:08:28;;;;;;;4.70;3.70;;;10.70;99.90;;;;;;5034461;28;20186;-72
2024/02/29 12:10:58;;;;;;;6.73;4.30;;;10.70;99.90;;;;;;5034869;28;20430;-71
2024/02/29 12:13:28;;;;;;;6.50;4.07;;;10.70;99.90;;;;;;5033802;28;20905;-71
2024/02/29 12:15:55;;;;;;;4.60;3.17;;;10.70;99.90;;;;;;5034367;28;21235;-70
2024/02/29 12:18:22;;;;;;;4.73;3.50;;;10.70;99.90;;;;;;5034160;28;20435;-71
2024/02/29 12:20:49;;;;;;;5.23;3.13;;;10.80;99.90;;;;;;5033649;28;20429;-66
2024/02/29 12:23:19;;;;;;;5.13;3.70;;;10.90;99.90;;;;;;5032766;28;20437;-67
2024/02/29 12:25:45;;;;;;;3.67;3.23;;;10.90;99.90;;;;;;5032813;28;21062;-69
2024/02/29 12:28:14;;;;;;;4.90;3.30;;;10.90;99.90;;;;;;5034219;28;20471;-71
2024/02/29 12:30:40;;;;;;;4.57;3.50;;;11.00;99.90;;;;;;5033452;28;20424;-73
2024/02/29 12:33:06;;;;;;;4.90;3.33;;;10.90;99.90;;;;;;5033919;28;20510;-65
2024/02/29 12:35:33;;;;;;;3.80;2.90;;;10.90;99.90;;;;;;5034650;28;20830;-70
2024/02/29 12:38:01;;;;;;;7.73;3.63;;;10.90;99.90;;;;;;5033471;28;20420;-70
2024/02/29 12:40:31;;;;;;;4.70;3.03;;;10.90;99.90;;;;;;5033777;28;20437;-66
2024/02/29 12:42:57;;;;;;;5.70;3.90;;;11.00;99.90;;;;;;5033090;28;20476;-68
2024/02/29 12:45:24;;;;;;;3.97;3.23;;;11.00;99.90;;;;;;5032909;28;20433;-69